sensor_id;sensor_type;location;lat;lon;timestamp;pressure;altitude;pressure_sealevel;temperature;humidity
66196;BME280;53000;45.182;5.736;2022-10-18T00:00:09;100302.53;;;22.05;56.71
66196;BME280;53000;45.182;5.736;2022-10-18T00:02:35;100305.50;;;22.03;56.82
66196;BME280;53000;45.182;5.736;2022-10-18T00:05:03;100299.13;;;22.03;56.50
66196;BME280;53000;45.182;5.736;2022-10-18T00:07:30;100303.81;;;22.02;56.47
66196;BME280;53000;45.182;5.736;2022-10-18T00:09:55;100294.91;;;22.00;56.45
66196;BME280;53000;45.182;5.736;2022-10-18T00:12:21;100300.44;;;22.00;56.44
66196;BME280;53000;45.182;5.736;2022-10-18T00:14:49;100311.66;;;21.99;56.26
66196;BME280;53000;45.182;5.736;2022-10-18T00:17:15;100309.56;;;21.94;56.35
66196;BME280;53000;45.182;5.736;2022-10-18T00:19:40;100306.41;;;21.91;57.07
66196;BME280;53000;45.182;5.736;2022-10-18T00:22:08;100311.72;;;21.85;56.79
66196;BME280;53000;45.182;5.736;2022-10-18T00:24:34;100312.56;;;21.86;57.55
66196;BME280;53000;45.182;5.736;2022-10-18T00:26:59;100306.00;;;21.80;57.26
66196;BME280;53000;45.182;5.736;2022-10-18T00:29:24;100319.59;;;21.75;57.04
66196;BME280;53000;45.182;5.736;2022-10-18T00:31:50;100319.19;;;21.72;57.75
66196;BME280;53000;45.182;5.736;2022-10-18T00:34:17;100314.97;;;21.69;57.42
66196;BME280;53000;45.182;5.736;2022-10-18T00:36:43;100316.47;;;21.65;58.49
66196;BME280;53000;45.182;5.736;2022-10-18T00:39:17;100320.69;;;21.61;57.75
66196;BME280;53000;45.182;5.736;2022-10-18T00:41:43;100313.72;;;21.58;57.79
66196;BME280;53000;45.182;5.736;2022-10-18T00:46:44;100322.22;;;21.50;58.05
66196;BME280;53000;45.182;5.736;2022-10-18T00:51:43;100321.81;;;21.47;58.59
66196;BME280;53000;45.182;5.736;2022-10-18T00:54:14;100321.19;;;21.44;59.39
66196;BME280;53000;45.182;5.736;2022-10-18T00:56:44;100327.94;;;21.42;58.74
66196;BME280;53000;45.182;5.736;2022-10-18T00:59:12;100319.91;;;21.34;59.10
66196;BME280;53000;45.182;5.736;2022-10-18T01:01:38;100327.94;;;21.29;59.33
66196;BME280;53000;45.182;5.736;2022-10-18T01:04:06;100325.00;;;21.23;58.90
66196;BME280;53000;45.182;5.736;2022-10-18T01:07:00;100332.19;;;21.18;59.18
66196;BME280;53000;45.182;5.736;2022-10-18T01:09:44;100326.25;;;21.14;58.94
66196;BME280;53000;45.182;5.736;2022-10-18T01:15:02;100321.63;;;21.08;60.19
66196;BME280;53000;45.182;5.736;2022-10-18T01:23:06;100321.00;;;20.99;59.99
66196;BME280;53000;45.182;5.736;2022-10-18T01:25:43;100316.97;;;20.95;60.19
66196;BME280;53000;45.182;5.736;2022-10-18T01:31:11;100323.97;;;20.91;60.65
66196;BME280;53000;45.182;5.736;2022-10-18T01:33:40;100307.84;;;20.88;60.87
66196;BME280;53000;45.182;5.736;2022-10-18T01:36:21;100316.34;;;20.87;60.08
66196;BME280;53000;45.182;5.736;2022-10-18T01:38:52;100318.03;;;20.88;60.14
66196;BME280;53000;45.182;5.736;2022-10-18T01:41:23;100315.47;;;20.86;60.56
66196;BME280;53000;45.182;5.736;2022-10-18T01:43:55;100314.22;;;20.82;59.76
66196;BME280;53000;45.182;5.736;2022-10-18T01:46:25;100306.19;;;20.80;60.31
66196;BME280;53000;45.182;5.736;2022-10-18T01:48:52;100312.72;;;20.79;60.81
66196;BME280;53000;45.182;5.736;2022-10-18T01:51:28;100310.19;;;20.78;60.17
66196;BME280;53000;45.182;5.736;2022-10-18T01:53:55;100314.22;;;20.75;59.95
66196;BME280;53000;45.182;5.736;2022-10-18T01:56:26;100308.72;;;20.69;60.62
66196;BME280;53000;45.182;5.736;2022-10-18T02:04:51;100305.47;;;20.52;60.97
66196;BME280;53000;45.182;5.736;2022-10-18T02:07:26;100301.06;;;20.51;60.74
66196;BME280;53000;45.182;5.736;2022-10-18T02:12:41;100316.72;;;20.50;60.56
66196;BME280;53000;45.182;5.736;2022-10-18T02:15:15;100314.16;;;20.49;60.73
66196;BME280;53000;45.182;5.736;2022-10-18T02:17:43;100300.81;;;20.46;60.60
66196;BME280;53000;45.182;5.736;2022-10-18T02:20:12;100305.66;;;20.43;60.50
66196;BME280;53000;45.182;5.736;2022-10-18T02:22:39;100297.66;;;20.42;60.57
66196;BME280;53000;45.182;5.736;2022-10-18T02:25:09;100304.00;;;20.42;60.56
66196;BME280;53000;45.182;5.736;2022-10-18T02:27:38;100304.00;;;20.42;60.50
66196;BME280;53000;45.182;5.736;2022-10-18T02:30:05;100298.06;;;20.39;60.98
66196;BME280;53000;45.182;5.736;2022-10-18T02:33:20;100304.63;;;20.38;61.50
66196;BME280;53000;45.182;5.736;2022-10-18T02:35:30;100301.44;;;20.34;60.88
66196;BME280;53000;45.182;5.736;2022-10-18T02:37:57;100302.50;;;20.33;61.16
66196;BME280;53000;45.182;5.736;2022-10-18T02:40:24;100306.72;;;20.29;60.61
66196;BME280;53000;45.182;5.736;2022-10-18T02:42:54;100309.66;;;20.28;61.02
66196;BME280;53000;45.182;5.736;2022-10-18T02:45:20;100294.63;;;20.17;61.36
66196;BME280;53000;45.182;5.736;2022-10-18T02:47:46;100300.34;;;20.22;61.08
66196;BME280;53000;45.182;5.736;2022-10-18T02:50:12;100307.34;;;20.25;60.98
66196;BME280;53000;45.182;5.736;2022-10-18T02:52:37;100302.69;;;20.25;61.04
66196;BME280;53000;45.182;5.736;2022-10-18T02:55:06;100301.63;;;20.26;60.86
66196;BME280;53000;45.182;5.736;2022-10-18T02:57:35;100300.78;;;20.19;60.80
66196;BME280;53000;45.182;5.736;2022-10-18T03:00:00;100308.19;;;20.18;60.80
66196;BME280;53000;45.182;5.736;2022-10-18T03:02:26;100304.97;;;20.15;61.34
66196;BME280;53000;45.182;5.736;2022-10-18T03:04:59;100310.91;;;20.12;61.26
66196;BME280;53000;45.182;5.736;2022-10-18T03:07:27;100312.38;;;20.08;61.88
66196;BME280;53000;45.182;5.736;2022-10-18T03:09:52;100317.44;;;20.04;61.60
66196;BME280;53000;45.182;5.736;2022-10-18T03:12:17;100312.78;;;20.05;61.91
66196;BME280;53000;45.182;5.736;2022-10-18T03:14:43;100314.22;;;20.00;61.58
66196;BME280;53000;45.182;5.736;2022-10-18T03:17:10;100320.78;;;19.99;61.90
66196;BME280;53000;45.182;5.736;2022-10-18T03:19:36;100313.38;;;20.00;61.73
66196;BME280;53000;45.182;5.736;2022-10-18T03:22:03;100315.50;;;19.98;61.66
66196;BME280;53000;45.182;5.736;2022-10-18T03:24:29;100314.47;;;19.99;61.90
66196;BME280;53000;45.182;5.736;2022-10-18T03:26:55;100312.34;;;20.01;61.75
66196;BME280;53000;45.182;5.736;2022-10-18T03:29:20;100305.34;;;19.98;61.58
66196;BME280;53000;45.182;5.736;2022-10-18T03:31:45;100306.59;;;19.96;61.67
66196;BME280;53000;45.182;5.736;2022-10-18T03:34:11;100317.16;;;19.92;61.78
66196;BME280;53000;45.182;5.736;2022-10-18T03:36:39;100316.75;;;19.89;61.58
66196;BME280;53000;45.182;5.736;2022-10-18T03:39:15;100316.09;;;19.87;61.65
66196;BME280;53000;45.182;5.736;2022-10-18T03:41:43;100323.06;;;19.83;62.09
66196;BME280;53000;45.182;5.736;2022-10-18T03:44:09;100329.81;;;19.80;61.86
66196;BME280;53000;45.182;5.736;2022-10-18T03:46:34;100321.75;;;19.78;62.03
66196;BME280;53000;45.182;5.736;2022-10-18T03:49:02;100331.06;;;19.77;61.88
66196;BME280;53000;45.182;5.736;2022-10-18T03:51:28;100329.34;;;19.76;62.34
66196;BME280;53000;45.182;5.736;2022-10-18T03:53:53;100328.53;;;19.76;61.71
66196;BME280;53000;45.182;5.736;2022-10-18T03:56:18;100330.81;;;19.72;61.51
66196;BME280;53000;45.182;5.736;2022-10-18T03:58:44;100327.22;;;19.72;61.93
66196;BME280;53000;45.182;5.736;2022-10-18T04:01:11;100330.31;;;19.69;61.74
66196;BME280;53000;45.182;5.736;2022-10-18T04:03:37;100338.41;;;19.70;61.54
66196;BME280;53000;45.182;5.736;2022-10-18T04:06:05;100347.88;;;19.68;62.24
66196;BME280;53000;45.182;5.736;2022-10-18T04:08:31;100346.13;;;19.60;61.87
66196;BME280;53000;45.182;5.736;2022-10-18T04:10:57;100348.88;;;19.60;61.91
66196;BME280;53000;45.182;5.736;2022-10-18T04:13:24;100353.53;;;19.59;61.63
66196;BME280;53000;45.182;5.736;2022-10-18T04:15:50;100347.63;;;19.56;62.00
66196;BME280;53000;45.182;5.736;2022-10-18T04:18:15;100349.25;;;19.50;61.32
66196;BME280;53000;45.182;5.736;2022-10-18T04:20:43;100352.19;;;19.49;61.70
66196;BME280;53000;45.182;5.736;2022-10-18T04:23:12;100353.44;;;19.46;61.66
66196;BME280;53000;45.182;5.736;2022-10-18T04:25:37;100356.81;;;19.41;61.52
66196;BME280;53000;45.182;5.736;2022-10-18T04:28:02;100362.69;;;19.38;60.86
66196;BME280;53000;45.182;5.736;2022-10-18T04:30:28;100367.09;;;19.33;61.47
66196;BME280;53000;45.182;5.736;2022-10-18T04:32:56;100358.22;;;19.31;61.71
66196;BME280;53000;45.182;5.736;2022-10-18T04:35:21;100364.72;;;19.30;61.95
66196;BME280;53000;45.182;5.736;2022-10-18T04:37:50;100366.81;;;19.28;62.00
66196;BME280;53000;45.182;5.736;2022-10-18T04:40:15;100368.72;;;19.27;62.15
66196;BME280;53000;45.182;5.736;2022-10-18T04:42:40;100369.78;;;19.26;62.05
66196;BME280;53000;45.182;5.736;2022-10-18T04:45:11;100369.16;;;19.24;62.01
66196;BME280;53000;45.182;5.736;2022-10-18T04:47:37;100367.44;;;19.23;62.36
66196;BME280;53000;45.182;5.736;2022-10-18T04:50:05;100364.25;;;19.19;62.52
66196;BME280;53000;45.182;5.736;2022-10-18T04:52:31;100367.00;;;19.19;62.13
66196;BME280;53000;45.182;5.736;2022-10-18T04:54:59;100369.75;;;19.19;62.63
66196;BME280;53000;45.182;5.736;2022-10-18T04:57:26;100370.13;;;19.16;62.46
66196;BME280;53000;45.182;5.736;2022-10-18T04:59:54;100384.91;;;19.15;62.28
66196;BME280;53000;45.182;5.736;2022-10-18T05:02:22;100377.53;;;19.16;62.22
66196;BME280;53000;45.182;5.736;2022-10-18T05:04:47;100372.41;;;19.13;62.06
66196;BME280;53000;45.182;5.736;2022-10-18T05:07:12;100385.91;;;19.08;62.01
66196;BME280;53000;45.182;5.736;2022-10-18T05:09:38;100385.66;;;19.03;62.18
66196;BME280;53000;45.182;5.736;2022-10-18T05:12:03;100380.94;;;18.96;62.53
66196;BME280;53000;45.182;5.736;2022-10-18T05:14:28;100387.28;;;18.97;62.51
66196;BME280;53000;45.182;5.736;2022-10-18T05:16:54;100389.19;;;18.96;62.55
66196;BME280;53000;45.182;5.736;2022-10-18T05:19:19;100386.81;;;18.93;62.50
66196;BME280;53000;45.182;5.736;2022-10-18T05:21:47;100392.28;;;18.93;62.45
66196;BME280;53000;45.182;5.736;2022-10-18T05:24:16;100378.81;;;18.92;62.35
66196;BME280;53000;45.182;5.736;2022-10-18T05:26:41;100381.09;;;18.88;62.99
66196;BME280;53000;45.182;5.736;2022-10-18T05:29:06;100398.56;;;18.87;63.01
66196;BME280;53000;45.182;5.736;2022-10-18T05:31:35;100390.75;;;18.84;63.30
66196;BME280;53000;45.182;5.736;2022-10-18T05:34:00;100397.06;;;18.85;63.19
66196;BME280;53000;45.182;5.736;2022-10-18T05:36:26;100397.72;;;18.87;63.44
66196;BME280;53000;45.182;5.736;2022-10-18T05:38:51;100386.75;;;18.87;63.15
66196;BME280;53000;45.182;5.736;2022-10-18T05:41:19;100382.97;;;18.88;63.04
66196;BME280;53000;45.182;5.736;2022-10-18T05:43:45;100385.91;;;18.86;62.93
66196;BME280;53000;45.182;5.736;2022-10-18T05:46:10;100377.88;;;18.85;63.10
66196;BME280;53000;45.182;5.736;2022-10-18T05:48:37;100391.59;;;18.85;63.26
66196;BME280;53000;45.182;5.736;2022-10-18T05:51:03;100389.91;;;18.84;63.26
66196;BME280;53000;45.182;5.736;2022-10-18T05:53:31;100387.16;;;18.84;63.20
66196;BME280;53000;45.182;5.736;2022-10-18T05:56:00;100389.06;;;18.83;63.40
66196;BME280;53000;45.182;5.736;2022-10-18T05:58:26;100391.41;;;18.86;63.22
66196;BME280;53000;45.182;5.736;2022-10-18T06:00:51;100389.69;;;18.85;63.25
66196;BME280;53000;45.182;5.736;2022-10-18T06:03:19;100378.09;;;18.83;62.59
66196;BME280;53000;45.182;5.736;2022-10-18T06:05:47;100387.91;;;18.77;63.08
66196;BME280;53000;45.182;5.736;2022-10-18T06:08:14;100384.91;;;18.72;62.58
66196;BME280;53000;45.182;5.736;2022-10-18T06:10:40;100390.78;;;18.69;63.17
66196;BME280;53000;45.182;5.736;2022-10-18T06:13:05;100386.34;;;18.68;63.18
66196;BME280;53000;45.182;5.736;2022-10-18T06:15:30;100390.19;;;18.74;63.27
66196;BME280;53000;45.182;5.736;2022-10-18T06:17:56;100384.31;;;18.77;63.15
66196;BME280;53000;45.182;5.736;2022-10-18T06:20:22;100386.69;;;18.80;62.79
66196;BME280;53000;45.182;5.736;2022-10-18T06:22:51;100386.69;;;18.80;62.86
66196;BME280;53000;45.182;5.736;2022-10-18T06:25:17;100382.94;;;18.81;62.89
66196;BME280;53000;45.182;5.736;2022-10-18T06:27:53;100381.41;;;18.78;63.07
66196;BME280;53000;45.182;5.736;2022-10-18T06:30:18;100378.84;;;18.77;63.01
66196;BME280;53000;45.182;5.736;2022-10-18T06:32:43;100381.41;;;18.78;63.00
66196;BME280;53000;45.182;5.736;2022-10-18T06:35:16;100385.44;;;18.83;62.92
66196;BME280;53000;45.182;5.736;2022-10-18T06:37:41;100385.06;;;18.86;63.10
66196;BME280;53000;45.182;5.736;2022-10-18T06:40:07;100399.63;;;18.86;63.42
66196;BME280;53000;45.182;5.736;2022-10-18T06:42:35;100397.53;;;18.88;63.42
66196;BME280;53000;45.182;5.736;2022-10-18T06:45:00;100393.94;;;18.88;62.77
66196;BME280;53000;45.182;5.736;2022-10-18T06:47:29;100403.50;;;18.92;62.79
66196;BME280;53000;45.182;5.736;2022-10-18T06:49:57;100404.16;;;18.94;63.00
66196;BME280;53000;45.182;5.736;2022-10-18T06:52:25;100398.25;;;18.97;62.32
66196;BME280;53000;45.182;5.736;2022-10-18T06:54:56;100400.81;;;18.98;62.27
66196;BME280;53000;45.182;5.736;2022-10-18T06:57:21;100400.41;;;19.02;62.08
66196;BME280;53000;45.182;5.736;2022-10-18T06:59:49;100406.53;;;19.04;62.00
66196;BME280;53000;45.182;5.736;2022-10-18T07:02:15;100418.81;;;19.08;61.83
66196;BME280;53000;45.182;5.736;2022-10-18T07:04:45;100416.06;;;19.08;62.00
66196;BME280;53000;45.182;5.736;2022-10-18T07:07:11;100420.13;;;19.12;61.96
66196;BME280;53000;45.182;5.736;2022-10-18T07:09:36;100418.03;;;19.14;62.04
66196;BME280;53000;45.182;5.736;2022-10-18T07:12:05;100430.13;;;19.19;62.25
66196;BME280;53000;45.182;5.736;2022-10-18T07:14:30;100425.06;;;19.23;62.33
66196;BME280;53000;45.182;5.736;2022-10-18T07:16:58;100429.78;;;19.29;62.46
66196;BME280;53000;45.182;5.736;2022-10-18T07:19:23;100432.75;;;19.34;62.35
66196;BME280;53000;45.182;5.736;2022-10-18T07:21:49;100433.22;;;19.38;62.42
66196;BME280;53000;45.182;5.736;2022-10-18T07:24:14;100433.03;;;19.39;62.43
66196;BME280;53000;45.182;5.736;2022-10-18T07:26:39;100433.69;;;19.41;62.46
66196;BME280;53000;45.182;5.736;2022-10-18T07:29:10;100432.91;;;19.48;62.21
66196;BME280;53000;45.182;5.736;2022-10-18T07:31:37;100435.69;;;19.54;62.18
66196;BME280;53000;45.182;5.736;2022-10-18T07:34:11;100425.59;;;19.61;62.31
66196;BME280;53000;45.182;5.736;2022-10-18T07:36:39;100430.47;;;19.66;61.94
66196;BME280;53000;45.182;5.736;2022-10-18T07:39:09;100428.22;;;19.70;62.18
66196;BME280;53000;45.182;5.736;2022-10-18T07:41:36;100429.50;;;19.74;62.26
66196;BME280;53000;45.182;5.736;2022-10-18T07:44:05;100425.31;;;19.78;62.08
66196;BME280;53000;45.182;5.736;2022-10-18T07:46:30;100429.13;;;19.84;62.04
66196;BME280;53000;45.182;5.736;2022-10-18T07:49:05;100432.56;;;19.92;61.97
66196;BME280;53000;45.182;5.736;2022-10-18T07:51:35;100429.44;;;19.95;61.60
66196;BME280;53000;45.182;5.736;2022-10-18T07:54:01;100431.56;;;20.00;61.72
66196;BME280;53000;45.182;5.736;2022-10-18T07:56:29;100428.19;;;20.05;61.32
66196;BME280;53000;45.182;5.736;2022-10-18T07:58:55;100418.03;;;20.05;61.14
66196;BME280;53000;45.182;5.736;2022-10-18T08:01:27;100423.59;;;20.12;61.38
66196;BME280;53000;45.182;5.736;2022-10-18T08:03:55;100425.50;;;20.18;61.24
66196;BME280;53000;45.182;5.736;2022-10-18T08:06:21;100425.13;;;20.21;60.87
66196;BME280;53000;45.182;5.736;2022-10-18T08:08:47;100426.41;;;20.25;60.83
66196;BME280;53000;45.182;5.736;2022-10-18T08:11:21;100412.88;;;20.30;60.78
66196;BME280;53000;45.182;5.736;2022-10-18T08:13:47;100415.88;;;20.35;60.74
66196;BME280;53000;45.182;5.736;2022-10-18T08:16:17;100409.97;;;20.45;60.85
66196;BME280;53000;45.182;5.736;2022-10-18T08:18:45;100420.59;;;20.55;60.30
66196;BME280;53000;45.182;5.736;2022-10-18T08:21:12;100412.78;;;20.58;60.39
66196;BME280;53000;45.182;5.736;2022-10-18T08:23:40;100414.72;;;20.65;60.28
66196;BME280;53000;45.182;5.736;2022-10-18T08:26:11;100414.97;;;20.76;59.81
66196;BME280;53000;45.182;5.736;2022-10-18T08:28:45;100412.44;;;20.88;59.73
66196;BME280;53000;45.182;5.736;2022-10-18T08:31:15;100412.69;;;21.20;59.85
66196;BME280;53000;45.182;5.736;2022-10-18T08:33:41;100408.78;;;22.01;59.37
66196;BME280;53000;45.182;5.736;2022-10-18T08:36:09;100411.28;;;22.99;56.89
66196;BME280;53000;45.182;5.736;2022-10-18T08:38:36;100400.50;;;23.92;53.90
66196;BME280;53000;45.182;5.736;2022-10-18T08:46:44;100401.50;;;26.77;49.28
66196;BME280;53000;45.182;5.736;2022-10-18T08:49:24;100406.69;;;27.52;50.15
66196;BME280;53000;45.182;5.736;2022-10-18T08:51:51;100399.66;;;28.23;48.81
66196;BME280;53000;45.182;5.736;2022-10-18T08:54:30;100392.03;;;28.84;47.61
66196;BME280;53000;45.182;5.736;2022-10-18T08:57:01;100396.38;;;29.34;45.70
66196;BME280;53000;45.182;5.736;2022-10-18T08:59:35;100385.06;;;29.51;44.21
66196;BME280;53000;45.182;5.736;2022-10-18T09:04:51;100380.75;;;30.24;42.98
66196;BME280;53000;45.182;5.736;2022-10-18T09:12:56;100392.47;;;31.20;40.05
66196;BME280;53000;45.182;5.736;2022-10-18T09:16:05;100388.84;;;31.45;40.97
66196;BME280;53000;45.182;5.736;2022-10-18T09:18:54;100387.69;;;31.66;40.35
66196;BME280;53000;45.182;5.736;2022-10-18T09:21:51;100383.75;;;31.77;36.93
66196;BME280;53000;45.182;5.736;2022-10-18T09:24:29;100373.63;;;31.97;35.95
66196;BME280;53000;45.182;5.736;2022-10-18T09:27:07;100370.44;;;32.24;35.67
66196;BME280;53000;45.182;5.736;2022-10-18T09:35:31;100369.50;;;32.44;37.51
66196;BME280;53000;45.182;5.736;2022-10-18T09:38:09;100366.38;;;32.51;37.46
66196;BME280;53000;45.182;5.736;2022-10-18T09:40:42;100360.44;;;32.63;37.01
66196;BME280;53000;45.182;5.736;2022-10-18T09:43:17;100358.63;;;32.82;36.54
66196;BME280;53000;45.182;5.736;2022-10-18T09:45:48;100363.25;;;33.02;36.40
66196;BME280;53000;45.182;5.736;2022-10-18T09:48:33;100362.59;;;33.15;36.21
66196;BME280;53000;45.182;5.736;2022-10-18T09:51:09;100359.13;;;33.29;36.14
66196;BME280;53000;45.182;5.736;2022-10-18T09:54:08;100351.69;;;33.43;35.60
66196;BME280;53000;45.182;5.736;2022-10-18T09:56:50;100349.69;;;33.49;35.31
66196;BME280;53000;45.182;5.736;2022-10-18T09:59:45;100348.47;;;33.60;34.98
66196;BME280;53000;45.182;5.736;2022-10-18T10:02:18;100352.75;;;33.76;34.51
66196;BME280;53000;45.182;5.736;2022-10-18T10:04:45;100344.09;;;33.97;33.49
66196;BME280;53000;45.182;5.736;2022-10-18T10:07:16;100350.63;;;34.16;33.87
66196;BME280;53000;45.182;5.736;2022-10-18T10:12:39;100345.63;;;34.32;32.29
66196;BME280;53000;45.182;5.736;2022-10-18T10:17:56;100336.06;;;34.09;32.43
66196;BME280;53000;45.182;5.736;2022-10-18T10:23:06;100339.78;;;34.05;32.42
66196;BME280;53000;45.182;5.736;2022-10-18T10:25:36;100332.31;;;34.19;32.58
66196;BME280;53000;45.182;5.736;2022-10-18T10:28:13;100328.81;;;34.27;32.37
66196;BME280;53000;45.182;5.736;2022-10-18T10:30:41;100325.34;;;34.35;32.00
66196;BME280;53000;45.182;5.736;2022-10-18T10:33:36;100328.00;;;34.46;31.69
66196;BME280;53000;45.182;5.736;2022-10-18T10:36:23;100324.72;;;34.57;32.23
66196;BME280;53000;45.182;5.736;2022-10-18T10:41:33;100317.44;;;34.56;31.67
66196;BME280;53000;45.182;5.736;2022-10-18T10:44:01;100312.53;;;34.67;31.76
66196;BME280;53000;45.182;5.736;2022-10-18T10:46:35;100313.25;;;34.73;30.90
66196;BME280;53000;45.182;5.736;2022-10-18T10:49:00;100310.00;;;34.66;28.50
66196;BME280;53000;45.182;5.736;2022-10-18T10:51:32;100297.16;;;34.40;30.64
66196;BME280;53000;45.182;5.736;2022-10-18T10:53:59;100301.78;;;34.31;29.57
66196;BME280;53000;45.182;5.736;2022-10-18T10:56:27;100292.59;;;34.26;30.68
66196;BME280;53000;45.182;5.736;2022-10-18T10:58:59;100293.44;;;34.26;30.94
66196;BME280;53000;45.182;5.736;2022-10-18T11:01:29;100290.69;;;34.21;30.75
66196;BME280;53000;45.182;5.736;2022-10-18T11:04:00;100282.44;;;34.06;30.69
66196;BME280;53000;45.182;5.736;2022-10-18T11:06:46;100279.59;;;34.11;31.28
66196;BME280;53000;45.182;5.736;2022-10-18T11:09:29;100280.66;;;34.15;30.49
66196;BME280;53000;45.182;5.736;2022-10-18T11:12:01;100262.69;;;34.16;29.72
66196;BME280;53000;45.182;5.736;2022-10-18T11:14:36;100262.97;;;34.14;30.45
66196;BME280;53000;45.182;5.736;2022-10-18T11:17:35;100251.69;;;34.19;30.89
66196;BME280;53000;45.182;5.736;2022-10-18T11:22:40;100246.50;;;34.27;29.73
66196;BME280;53000;45.182;5.736;2022-10-18T11:25:14;100241.41;;;34.29;30.60
66196;BME280;53000;45.182;5.736;2022-10-18T11:28:26;100233.75;;;34.34;30.01
66196;BME280;53000;45.182;5.736;2022-10-18T11:33:19;100231.00;;;34.29;29.66
66196;BME280;53000;45.182;5.736;2022-10-18T11:36:02;100230.47;;;34.27;29.32
66196;BME280;53000;45.182;5.736;2022-10-18T11:43:54;100204.09;;;34.04;29.93
66196;BME280;53000;45.182;5.736;2022-10-18T11:49:52;100191.97;;;34.09;30.44
66196;BME280;53000;45.182;5.736;2022-10-18T12:04:57;100157.47;;;34.03;28.70
66196;BME280;53000;45.182;5.736;2022-10-18T12:07:30;100148.22;;;34.03;29.55
66196;BME280;53000;45.182;5.736;2022-10-18T12:09:58;100148.66;;;34.10;29.51
66196;BME280;53000;45.182;5.736;2022-10-18T12:12:35;100143.03;;;34.10;30.00
66196;BME280;53000;45.182;5.736;2022-10-18T12:15:11;100136.59;;;34.09;29.52
66196;BME280;53000;45.182;5.736;2022-10-18T12:17:42;100140.53;;;34.08;28.99
66196;BME280;53000;45.182;5.736;2022-10-18T12:23:24;100133.50;;;33.92;29.72
66196;BME280;53000;45.182;5.736;2022-10-18T12:25:59;100124.16;;;33.77;29.21
66196;BME280;53000;45.182;5.736;2022-10-18T12:28:57;100125.84;;;33.59;29.96
66196;BME280;53000;45.182;5.736;2022-10-18T12:34:27;100111.34;;;33.71;29.66
66196;BME280;53000;45.182;5.736;2022-10-18T12:36:58;100111.09;;;33.68;30.04
66196;BME280;53000;45.182;5.736;2022-10-18T12:39:35;100109.28;;;33.58;30.00
66196;BME280;53000;45.182;5.736;2022-10-18T12:42:02;100102.25;;;33.60;29.23
66196;BME280;53000;45.182;5.736;2022-10-18T12:44:31;100106.41;;;33.63;29.97
66196;BME280;53000;45.182;5.736;2022-10-18T12:47:02;100101.13;;;33.62;28.29
66196;BME280;53000;45.182;5.736;2022-10-18T12:49:32;100100.03;;;33.57;29.49
66196;BME280;53000;45.182;5.736;2022-10-18T12:52:17;100097.94;;;33.44;27.82
66196;BME280;53000;45.182;5.736;2022-10-18T13:16:58;100051.25;;;32.33;29.16
66196;BME280;53000;45.182;5.736;2022-10-18T13:25:13;100030.03;;;31.63;29.88
66196;BME280;53000;45.182;5.736;2022-10-18T13:35:51;100020.13;;;31.36;30.40
66196;BME280;53000;45.182;5.736;2022-10-18T13:41:18;100012.97;;;31.59;31.09
66196;BME280;53000;45.182;5.736;2022-10-18T13:43:57;100013.44;;;31.72;30.47
66196;BME280;53000;45.182;5.736;2022-10-18T13:48:50;100011.03;;;31.89;30.97
66196;BME280;53000;45.182;5.736;2022-10-18T13:59:42;100016.19;;;32.11;31.05
66196;BME280;53000;45.182;5.736;2022-10-18T14:05:23;100011.28;;;32.27;30.95
66196;BME280;53000;45.182;5.736;2022-10-18T14:08:13;100009.56;;;32.31;31.18
66196;BME280;53000;45.182;5.736;2022-10-18T14:10:42;100010.84;;;32.39;31.05
66196;BME280;53000;45.182;5.736;2022-10-18T14:13:19;100005.25;;;32.39;30.79
66196;BME280;53000;45.182;5.736;2022-10-18T14:15:48;100008.91;;;32.39;30.60
66196;BME280;53000;45.182;5.736;2022-10-18T14:18:36;100010.28;;;32.42;31.13
66196;BME280;53000;45.182;5.736;2022-10-18T14:21:11;100007.78;;;32.40;31.38
66196;BME280;53000;45.182;5.736;2022-10-18T14:23:45;100006.16;;;32.34;31.12
66196;BME280;53000;45.182;5.736;2022-10-18T14:26:17;100006.75;;;32.31;31.04
66196;BME280;53000;45.182;5.736;2022-10-18T14:28:43;100012.66;;;32.30;31.24
66196;BME280;53000;45.182;5.736;2022-10-18T14:31:18;100011.28;;;32.27;31.16
66196;BME280;53000;45.182;5.736;2022-10-18T14:33:51;100004.84;;;32.27;31.04
66196;BME280;53000;45.182;5.736;2022-10-18T14:36:30;100009.38;;;32.23;31.29
66196;BME280;53000;45.182;5.736;2022-10-18T14:39:05;100005.78;;;32.17;30.99
66196;BME280;53000;45.182;5.736;2022-10-18T14:41:36;100013.97;;;32.08;31.30
66196;BME280;53000;45.182;5.736;2022-10-18T14:46:50;99997.72;;;31.76;31.29
66196;BME280;53000;45.182;5.736;2022-10-18T14:49:18;99993.91;;;31.62;31.64
66196;BME280;53000;45.182;5.736;2022-10-18T14:51:55;99990.09;;;31.52;31.44
66196;BME280;53000;45.182;5.736;2022-10-18T14:54:32;99985.13;;;31.39;31.99
66196;BME280;53000;45.182;5.736;2022-10-18T14:57:06;99990.50;;;31.25;31.88
66196;BME280;53000;45.182;5.736;2022-10-18T14:59:49;99988.09;;;31.13;32.57
66196;BME280;53000;45.182;5.736;2022-10-18T15:02:47;99982.03;;;30.96;32.16
66196;BME280;53000;45.182;5.736;2022-10-18T15:05:22;99982.63;;;30.83;32.61
66196;BME280;53000;45.182;5.736;2022-10-18T15:07:55;99980.44;;;30.69;32.79
66196;BME280;53000;45.182;5.736;2022-10-18T15:10:32;99981.91;;;30.56;32.85
66196;BME280;53000;45.182;5.736;2022-10-18T15:13:00;99977.50;;;30.40;32.80
66196;BME280;53000;45.182;5.736;2022-10-18T15:15:31;99981.97;;;30.31;32.97
66196;BME280;53000;45.182;5.736;2022-10-18T15:17:57;99987.81;;;30.24;33.50
66196;BME280;53000;45.182;5.736;2022-10-18T15:20:29;99976.13;;;30.12;33.74
66196;BME280;53000;45.182;5.736;2022-10-18T15:23:22;99977.25;;;30.01;33.68
66196;BME280;53000;45.182;5.736;2022-10-18T15:25:49;99981.75;;;29.91;33.68
66196;BME280;53000;45.182;5.736;2022-10-18T15:28:33;99975.06;;;29.82;33.85
66196;BME280;53000;45.182;5.736;2022-10-18T15:31:03;99980.59;;;29.67;34.17